sensor_id;sensor_type;location;lat;lon;timestamp;P1;durP1;ratioP1;P2;durP2;ratioP2
6665;SDS011;3369;49.906;8.598;2023-05-10T00:00:32;2.27;;;0.70;;
6665;SDS011;3369;49.906;8.598;2023-05-10T00:02:57;0.87;;;0.80;;
6665;SDS011;3369;49.906;8.598;2023-05-10T00:05:23;0.60;;;0.60;;
6665;SDS011;3369;49.906;8.598;2023-05-10T00:07:49;0.60;;;0.60;;
6665;SDS011;3369;49.906;8.598;2023-05-10T00:10:14;0.50;;;0.50;;
6665;SDS011;3369;49.906;8.598;2023-05-10T00:12:40;0.60;;;0.60;;
6665;SDS011;3369;49.906;8.598;2023-05-10T00:15:07;0.77;;;0.73;;
6665;SDS011;3369;49.906;8.598;2023-05-10T00:17:33;0.43;;;0.40;;
6665;SDS011;3369;49.906;8.598;2023-05-10T00:19:59;0.60;;;0.60;;
6665;SDS011;3369;49.906;8.598;2023-05-10T00:22:25;0.60;;;0.60;;
6665;SDS011;3369;49.906;8.598;2023-05-10T00:24:50;0.60;;;0.60;;
6665;SDS011;3369;49.906;8.598;2023-05-10T00:27:16;0.50;;;0.50;;
6665;SDS011;3369;49.906;8.598;2023-05-10T00:29:42;0.50;;;0.50;;
6665;SDS011;3369;49.906;8.598;2023-05-10T00:32:07;0.60;;;0.60;;
6665;SDS011;3369;49.906;8.598;2023-05-10T00:34:33;0.63;;;0.63;;
6665;SDS011;3369;49.906;8.598;2023-05-10T00:36:59;0.60;;;0.60;;
6665;SDS011;3369;49.906;8.598;2023-05-10T00:39:24;0.70;;;0.70;;
6665;SDS011;3369;49.906;8.598;2023-05-10T00:41:51;1.13;;;0.70;;
6665;SDS011;3369;49.906;8.598;2023-05-10T00:44:17;0.93;;;0.80;;
6665;SDS011;3369;49.906;8.598;2023-05-10T00:46:43;1.60;;;0.50;;
6665;SDS011;3369;49.906;8.598;2023-05-10T00:49:09;0.40;;;0.40;;
6665;SDS011;3369;49.906;8.598;2023-05-10T00:51:35;0.40;;;0.40;;
6665;SDS011;3369;49.906;8.598;2023-05-10T00:54:01;0.40;;;0.40;;
6665;SDS011;3369;49.906;8.598;2023-05-10T00:56:27;0.50;;;0.50;;
6665;SDS011;3369;49.906;8.598;2023-05-10T00:58:54;0.60;;;0.60;;
6665;SDS011;3369;49.906;8.598;2023-05-10T01:01:20;0.50;;;0.50;;
6665;SDS011;3369;49.906;8.598;2023-05-10T01:03:46;0.50;;;0.50;;
6665;SDS011;3369;49.906;8.598;2023-05-10T01:06:12;0.50;;;0.50;;
6665;SDS011;3369;49.906;8.598;2023-05-10T01:30:08;0.67;;;0.67;;
6665;SDS011;3369;49.906;8.598;2023-05-10T01:33:14;0.60;;;0.60;;
6665;SDS011;3369;49.906;8.598;2023-05-10T01:36:00;1.93;;;0.70;;
6665;SDS011;3369;49.906;8.598;2023-05-10T01:46:56;0.70;;;0.70;;
6665;SDS011;3369;49.906;8.598;2023-05-10T01:49:31;0.70;;;0.70;;
6665;SDS011;3369;49.906;8.598;2023-05-10T01:52:00;0.73;;;0.73;;
6665;SDS011;3369;49.906;8.598;2023-05-10T01:54:31;1.33;;;0.80;;
6665;SDS011;3369;49.906;8.598;2023-05-10T01:57:00;3.03;;;0.80;;
6665;SDS011;3369;49.906;8.598;2023-05-10T01:59:30;1.37;;;0.80;;
6665;SDS011;3369;49.906;8.598;2023-05-10T02:02:05;0.70;;;0.70;;
6665;SDS011;3369;49.906;8.598;2023-05-10T02:04:33;1.00;;;0.90;;
6665;SDS011;3369;49.906;8.598;2023-05-10T02:07:02;0.90;;;0.80;;
6665;SDS011;3369;49.906;8.598;2023-05-10T02:09:30;0.87;;;0.87;;
6665;SDS011;3369;49.906;8.598;2023-05-10T02:11:58;1.10;;;1.10;;
6665;SDS011;3369;49.906;8.598;2023-05-10T02:14:27;1.77;;;1.10;;
6665;SDS011;3369;49.906;8.598;2023-05-10T02:16:57;1.03;;;1.03;;
6665;SDS011;3369;49.906;8.598;2023-05-10T02:19:25;2.80;;;1.00;;
6665;SDS011;3369;49.906;8.598;2023-05-10T02:21:52;1.10;;;1.00;;
6665;SDS011;3369;49.906;8.598;2023-05-10T02:24:20;1.10;;;1.10;;
6665;SDS011;3369;49.906;8.598;2023-05-10T02:26:46;1.10;;;1.10;;
6665;SDS011;3369;49.906;8.598;2023-05-10T02:29:14;2.03;;;1.10;;
6665;SDS011;3369;49.906;8.598;2023-05-10T02:31:42;1.00;;;1.00;;
6665;SDS011;3369;49.906;8.598;2023-05-10T02:34:08;0.93;;;0.93;;
6665;SDS011;3369;49.906;8.598;2023-05-10T02:36:36;2.43;;;0.90;;
6665;SDS011;3369;49.906;8.598;2023-05-10T02:39:03;2.33;;;0.90;;
6665;SDS011;3369;49.906;8.598;2023-05-10T02:41:34;1.10;;;1.10;;
6665;SDS011;3369;49.906;8.598;2023-05-10T02:44:01;0.90;;;0.90;;
6665;SDS011;3369;49.906;8.598;2023-05-10T02:46:28;1.00;;;1.00;;
6665;SDS011;3369;49.906;8.598;2023-05-10T02:48:54;1.23;;;1.00;;
6665;SDS011;3369;49.906;8.598;2023-05-10T02:51:20;1.23;;;1.00;;
6665;SDS011;3369;49.906;8.598;2023-05-10T02:53:50;1.20;;;1.20;;
6665;SDS011;3369;49.906;8.598;2023-05-10T02:56:34;1.03;;;1.03;;
6665;SDS011;3369;49.906;8.598;2023-05-10T02:59:04;1.40;;;1.30;;
6665;SDS011;3369;49.906;8.598;2023-05-10T03:01:30;1.30;;;1.20;;
6665;SDS011;3369;49.906;8.598;2023-05-10T03:03:55;1.90;;;1.70;;
6665;SDS011;3369;49.906;8.598;2023-05-10T03:06:21;1.50;;;1.50;;
6665;SDS011;3369;49.906;8.598;2023-05-10T03:08:47;3.17;;;1.80;;
6665;SDS011;3369;49.906;8.598;2023-05-10T03:17:04;2.50;;;2.30;;
6665;SDS011;3369;49.906;8.598;2023-05-10T03:19:39;2.37;;;2.17;;
6665;SDS011;3369;49.906;8.598;2023-05-10T03:22:10;2.47;;;1.87;;
6665;SDS011;3369;49.906;8.598;2023-05-10T03:24:38;4.37;;;2.40;;
6665;SDS011;3369;49.906;8.598;2023-05-10T03:27:06;2.80;;;2.60;;
6665;SDS011;3369;49.906;8.598;2023-05-10T03:29:33;2.70;;;2.50;;
6665;SDS011;3369;49.906;8.598;2023-05-10T03:31:59;2.83;;;2.60;;
6665;SDS011;3369;49.906;8.598;2023-05-10T03:34:25;3.53;;;2.60;;
6665;SDS011;3369;49.906;8.598;2023-05-10T03:36:51;2.87;;;2.53;;
6665;SDS011;3369;49.906;8.598;2023-05-10T03:39:17;2.50;;;2.40;;
6665;SDS011;3369;49.906;8.598;2023-05-10T03:41:42;3.23;;;3.03;;
6665;SDS011;3369;49.906;8.598;2023-05-10T03:44:08;3.63;;;3.33;;
6665;SDS011;3369;49.906;8.598;2023-05-10T03:46:34;3.00;;;2.80;;
6665;SDS011;3369;49.906;8.598;2023-05-10T03:48:59;3.20;;;2.93;;
6665;SDS011;3369;49.906;8.598;2023-05-10T03:51:25;3.37;;;3.13;;
6665;SDS011;3369;49.906;8.598;2023-05-10T03:53:53;2.90;;;2.70;;
6665;SDS011;3369;49.906;8.598;2023-05-10T03:56:21;2.80;;;2.60;;
6665;SDS011;3369;49.906;8.598;2023-05-10T03:58:47;2.80;;;2.60;;
6665;SDS011;3369;49.906;8.598;2023-05-10T04:01:13;3.30;;;3.00;;
6665;SDS011;3369;49.906;8.598;2023-05-10T04:03:38;3.70;;;3.40;;
6665;SDS011;3369;49.906;8.598;2023-05-10T04:06:04;5.13;;;3.17;;
6665;SDS011;3369;49.906;8.598;2023-05-10T04:08:30;3.10;;;2.90;;
6665;SDS011;3369;49.906;8.598;2023-05-10T04:11:06;3.37;;;3.13;;
6665;SDS011;3369;49.906;8.598;2023-05-10T04:13:33;3.17;;;2.97;;
6665;SDS011;3369;49.906;8.598;2023-05-10T04:15:58;3.30;;;3.10;;
6665;SDS011;3369;49.906;8.598;2023-05-10T04:18:24;2.97;;;2.77;;
6665;SDS011;3369;49.906;8.598;2023-05-10T04:20:50;2.90;;;2.60;;
6665;SDS011;3369;49.906;8.598;2023-05-10T04:23:16;3.53;;;3.27;;
6665;SDS011;3369;49.906;8.598;2023-05-10T04:25:41;3.03;;;2.83;;
6665;SDS011;3369;49.906;8.598;2023-05-10T04:28:07;2.80;;;2.60;;
6665;SDS011;3369;49.906;8.598;2023-05-10T04:30:33;2.73;;;2.53;;
6665;SDS011;3369;49.906;8.598;2023-05-10T04:32:59;3.10;;;2.80;;
6665;SDS011;3369;49.906;8.598;2023-05-10T04:35:26;2.77;;;2.63;;
6665;SDS011;3369;49.906;8.598;2023-05-10T04:37:53;3.23;;;2.63;;
6665;SDS011;3369;49.906;8.598;2023-05-10T04:40:19;2.40;;;2.30;;
6665;SDS011;3369;49.906;8.598;2023-05-10T04:42:45;2.60;;;2.40;;
6665;SDS011;3369;49.906;8.598;2023-05-10T04:45:10;2.50;;;2.40;;
6665;SDS011;3369;49.906;8.598;2023-05-10T04:47:36;3.60;;;3.30;;
6665;SDS011;3369;49.906;8.598;2023-05-10T04:50:02;3.20;;;2.90;;
6665;SDS011;3369;49.906;8.598;2023-05-10T04:52:28;2.30;;;2.17;;
6665;SDS011;3369;49.906;8.598;2023-05-10T04:54:54;3.30;;;2.97;;
6665;SDS011;3369;49.906;8.598;2023-05-10T04:57:19;3.20;;;2.90;;
6665;SDS011;3369;49.906;8.598;2023-05-10T04:59:45;2.97;;;2.77;;
6665;SDS011;3369;49.906;8.598;2023-05-10T05:02:11;2.90;;;2.70;;
6665;SDS011;3369;49.906;8.598;2023-05-10T05:04:36;3.13;;;2.93;;
6665;SDS011;3369;49.906;8.598;2023-05-10T05:07:02;3.00;;;2.80;;
6665;SDS011;3369;49.906;8.598;2023-05-10T05:09:27;3.07;;;2.87;;
6665;SDS011;3369;49.906;8.598;2023-05-10T05:11:53;4.53;;;3.30;;
6665;SDS011;3369;49.906;8.598;2023-05-10T05:14:19;3.53;;;3.23;;
6665;SDS011;3369;49.906;8.598;2023-05-10T05:16:46;4.03;;;3.37;;
6665;SDS011;3369;49.906;8.598;2023-05-10T05:19:11;3.70;;;3.40;;
6665;SDS011;3369;49.906;8.598;2023-05-10T05:21:37;3.37;;;3.17;;
6665;SDS011;3369;49.906;8.598;2023-05-10T05:24:03;3.43;;;3.13;;
6665;SDS011;3369;49.906;8.598;2023-05-10T05:26:29;3.93;;;3.23;;
6665;SDS011;3369;49.906;8.598;2023-05-10T05:28:54;3.23;;;2.93;;
6665;SDS011;3369;49.906;8.598;2023-05-10T05:31:20;2.90;;;2.70;;
6665;SDS011;3369;49.906;8.598;2023-05-10T05:33:46;2.80;;;2.60;;
6665;SDS011;3369;49.906;8.598;2023-05-10T05:36:11;3.40;;;2.80;;
6665;SDS011;3369;49.906;8.598;2023-05-10T05:38:37;2.93;;;2.30;;
6665;SDS011;3369;49.906;8.598;2023-05-10T05:41:03;3.50;;;3.10;;
6665;SDS011;3369;49.906;8.598;2023-05-10T05:43:28;3.03;;;2.67;;
6665;SDS011;3369;49.906;8.598;2023-05-10T05:45:54;3.17;;;2.73;;
6665;SDS011;3369;49.906;8.598;2023-05-10T05:48:20;3.50;;;2.97;;
6665;SDS011;3369;49.906;8.598;2023-05-10T05:50:46;4.37;;;2.70;;
6665;SDS011;3369;49.906;8.598;2023-05-10T05:53:11;6.07;;;3.40;;
6665;SDS011;3369;49.906;8.598;2023-05-10T05:55:37;3.53;;;3.17;;
6665;SDS011;3369;49.906;8.598;2023-05-10T05:58:02;3.40;;;3.10;;
6665;SDS011;3369;49.906;8.598;2023-05-10T06:00:28;6.00;;;2.80;;
6665;SDS011;3369;49.906;8.598;2023-05-10T06:02:54;3.87;;;3.10;;
6665;SDS011;3369;49.906;8.598;2023-05-10T06:05:19;5.20;;;3.70;;
6665;SDS011;3369;49.906;8.598;2023-05-10T06:07:45;3.47;;;3.20;;
6665;SDS011;3369;49.906;8.598;2023-05-10T06:10:11;5.87;;;3.50;;
6665;SDS011;3369;49.906;8.598;2023-05-10T06:12:37;3.70;;;3.03;;
6665;SDS011;3369;49.906;8.598;2023-05-10T06:15:03;3.83;;;3.23;;
6665;SDS011;3369;49.906;8.598;2023-05-10T06:17:29;5.37;;;3.20;;
6665;SDS011;3369;49.906;8.598;2023-05-10T06:19:55;4.00;;;2.87;;
6665;SDS011;3369;49.906;8.598;2023-05-10T06:22:20;3.80;;;3.30;;
6665;SDS011;3369;49.906;8.598;2023-05-10T06:24:49;3.33;;;3.03;;
6665;SDS011;3369;49.906;8.598;2023-05-10T06:27:14;3.43;;;3.23;;
6665;SDS011;3369;49.906;8.598;2023-05-10T06:29:40;6.13;;;3.20;;
6665;SDS011;3369;49.906;8.598;2023-05-10T06:32:06;3.50;;;3.20;;
6665;SDS011;3369;49.906;8.598;2023-05-10T06:34:31;3.73;;;3.20;;
6665;SDS011;3369;49.906;8.598;2023-05-10T06:36:57;3.73;;;3.30;;
6665;SDS011;3369;49.906;8.598;2023-05-10T06:39:23;8.23;;;3.80;;
6665;SDS011;3369;49.906;8.598;2023-05-10T06:41:49;4.33;;;3.67;;
6665;SDS011;3369;49.906;8.598;2023-05-10T06:44:14;3.60;;;3.30;;
6665;SDS011;3369;49.906;8.598;2023-05-10T06:46:40;6.83;;;4.03;;
6665;SDS011;3369;49.906;8.598;2023-05-10T06:49:06;4.07;;;3.53;;
6665;SDS011;3369;49.906;8.598;2023-05-10T07:13:30;5.50;;;5.00;;
6665;SDS011;3369;49.906;8.598;2023-05-10T07:15:56;5.30;;;4.80;;
6665;SDS011;3369;49.906;8.598;2023-05-10T07:18:23;5.13;;;4.73;;
6665;SDS011;3369;49.906;8.598;2023-05-10T07:20:49;5.00;;;4.60;;
6665;SDS011;3369;49.906;8.598;2023-05-10T07:23:15;5.70;;;5.20;;
6665;SDS011;3369;49.906;8.598;2023-05-10T07:25:44;5.07;;;4.67;;
6665;SDS011;3369;49.906;8.598;2023-05-10T07:28:14;5.40;;;4.90;;
6665;SDS011;3369;49.906;8.598;2023-05-10T07:30:40;5.93;;;5.43;;
6665;SDS011;3369;49.906;8.598;2023-05-10T07:33:06;5.47;;;4.97;;
6665;SDS011;3369;49.906;8.598;2023-05-10T07:35:33;5.27;;;4.70;;
6665;SDS011;3369;49.906;8.598;2023-05-10T07:37:59;4.43;;;4.03;;
6665;SDS011;3369;49.906;8.598;2023-05-10T07:40:24;6.20;;;3.90;;
6665;SDS011;3369;49.906;8.598;2023-05-10T07:42:50;4.37;;;3.67;;
6665;SDS011;3369;49.906;8.598;2023-05-10T07:45:16;4.93;;;4.17;;
6665;SDS011;3369;49.906;8.598;2023-05-10T07:47:42;3.83;;;3.37;;
6665;SDS011;3369;49.906;8.598;2023-05-10T07:50:08;4.73;;;3.40;;
6665;SDS011;3369;49.906;8.598;2023-05-10T07:52:34;3.97;;;3.57;;
6665;SDS011;3369;49.906;8.598;2023-05-10T07:54:59;3.60;;;3.30;;
6665;SDS011;3369;49.906;8.598;2023-05-10T07:57:25;3.50;;;3.20;;
6665;SDS011;3369;49.906;8.598;2023-05-10T07:59:51;3.90;;;3.60;;
6665;SDS011;3369;49.906;8.598;2023-05-10T08:02:16;3.37;;;3.10;;
6665;SDS011;3369;49.906;8.598;2023-05-10T08:04:42;3.10;;;2.90;;
6665;SDS011;3369;49.906;8.598;2023-05-10T08:07:08;3.10;;;2.80;;
6665;SDS011;3369;49.906;8.598;2023-05-10T08:09:33;5.30;;;2.90;;
6665;SDS011;3369;49.906;8.598;2023-05-10T08:11:59;2.93;;;2.57;;
6665;SDS011;3369;49.906;8.598;2023-05-10T08:14:27;3.00;;;2.40;;
6665;SDS011;3369;49.906;8.598;2023-05-10T08:16:53;2.20;;;2.10;;
6665;SDS011;3369;49.906;8.598;2023-05-10T08:19:19;2.60;;;2.40;;
6665;SDS011;3369;49.906;8.598;2023-05-10T08:21:46;2.40;;;2.30;;
6665;SDS011;3369;49.906;8.598;2023-05-10T08:24:12;2.70;;;2.47;;
6665;SDS011;3369;49.906;8.598;2023-05-10T08:26:38;3.27;;;2.50;;
6665;SDS011;3369;49.906;8.598;2023-05-10T08:29:04;2.70;;;2.50;;
6665;SDS011;3369;49.906;8.598;2023-05-10T08:31:29;4.30;;;2.40;;
6665;SDS011;3369;49.906;8.598;2023-05-10T08:33:55;5.90;;;2.60;;
6665;SDS011;3369;49.906;8.598;2023-05-10T08:36:21;2.57;;;2.43;;
6665;SDS011;3369;49.906;8.598;2023-05-10T08:38:50;2.80;;;2.60;;
6665;SDS011;3369;49.906;8.598;2023-05-10T08:41:16;2.83;;;2.63;;
6665;SDS011;3369;49.906;8.598;2023-05-10T08:43:45;2.60;;;2.37;;
6665;SDS011;3369;49.906;8.598;2023-05-10T08:46:13;2.83;;;2.63;;
6665;SDS011;3369;49.906;8.598;2023-05-10T08:48:43;3.23;;;2.90;;
6665;SDS011;3369;49.906;8.598;2023-05-10T08:51:19;2.57;;;2.37;;
6665;SDS011;3369;49.906;8.598;2023-05-10T08:53:51;2.70;;;2.50;;
6665;SDS011;3369;49.906;8.598;2023-05-10T08:56:17;3.37;;;2.50;;
6665;SDS011;3369;49.906;8.598;2023-05-10T08:58:45;2.87;;;2.67;;
6665;SDS011;3369;49.906;8.598;2023-05-10T09:01:10;2.67;;;2.10;;
6665;SDS011;3369;49.906;8.598;2023-05-10T09:03:38;2.17;;;1.97;;
6665;SDS011;3369;49.906;8.598;2023-05-10T09:06:05;3.50;;;2.03;;
6665;SDS011;3369;49.906;8.598;2023-05-10T09:08:31;2.00;;;1.90;;
6665;SDS011;3369;49.906;8.598;2023-05-10T09:10:58;1.97;;;1.87;;
6665;SDS011;3369;49.906;8.598;2023-05-10T09:13:26;1.67;;;1.57;;
6665;SDS011;3369;49.906;8.598;2023-05-10T09:15:52;2.00;;;1.90;;
6665;SDS011;3369;49.906;8.598;2023-05-10T09:18:18;1.70;;;1.60;;
6665;SDS011;3369;49.906;8.598;2023-05-10T09:20:44;1.53;;;1.43;;
6665;SDS011;3369;49.906;8.598;2023-05-10T09:23:09;1.53;;;1.43;;
6665;SDS011;3369;49.906;8.598;2023-05-10T09:25:35;1.30;;;1.20;;
6665;SDS011;3369;49.906;8.598;2023-05-10T09:28:05;1.30;;;1.20;;
6665;SDS011;3369;49.906;8.598;2023-05-10T09:30:32;2.10;;;1.27;;
6665;SDS011;3369;49.906;8.598;2023-05-10T09:32:58;1.03;;;1.03;;
6665;SDS011;3369;49.906;8.598;2023-05-10T09:35:25;1.07;;;1.07;;
6665;SDS011;3369;49.906;8.598;2023-05-10T09:37:53;1.30;;;1.20;;
6665;SDS011;3369;49.906;8.598;2023-05-10T09:40:21;1.63;;;1.53;;
6665;SDS011;3369;49.906;8.598;2023-05-10T09:42:57;1.23;;;1.20;;
6665;SDS011;3369;49.906;8.598;2023-05-10T09:45:28;1.70;;;1.60;;
6665;SDS011;3369;49.906;8.598;2023-05-10T09:47:59;1.70;;;1.10;;
6665;SDS011;3369;49.906;8.598;2023-05-10T09:50:26;2.73;;;0.93;;
6665;SDS011;3369;49.906;8.598;2023-05-10T09:52:53;0.70;;;0.70;;
6665;SDS011;3369;49.906;8.598;2023-05-10T09:55:23;0.80;;;0.80;;
6665;SDS011;3369;49.906;8.598;2023-05-10T09:57:58;1.27;;;0.60;;
6665;SDS011;3369;49.906;8.598;2023-05-10T10:00:25;1.37;;;0.70;;
6665;SDS011;3369;49.906;8.598;2023-05-10T10:02:56;0.93;;;0.90;;
6665;SDS011;3369;49.906;8.598;2023-05-10T10:05:29;1.17;;;1.00;;
6665;SDS011;3369;49.906;8.598;2023-05-10T10:07:56;0.77;;;0.77;;
6665;SDS011;3369;49.906;8.598;2023-05-10T10:10:24;0.97;;;0.97;;
6665;SDS011;3369;49.906;8.598;2023-05-10T10:12:50;0.90;;;0.90;;
6665;SDS011;3369;49.906;8.598;2023-05-10T10:15:16;1.50;;;1.00;;
6665;SDS011;3369;49.906;8.598;2023-05-10T10:17:43;1.07;;;1.00;;
6665;SDS011;3369;49.906;8.598;2023-05-10T10:20:08;1.30;;;1.20;;
6665;SDS011;3369;49.906;8.598;2023-05-10T10:22:34;1.13;;;1.03;;
6665;SDS011;3369;49.906;8.598;2023-05-10T10:25:02;1.00;;;1.00;;
6665;SDS011;3369;49.906;8.598;2023-05-10T10:27:42;0.90;;;0.90;;
6665;SDS011;3369;49.906;8.598;2023-05-10T10:30:16;1.80;;;0.90;;
6665;SDS011;3369;49.906;8.598;2023-05-10T10:35:32;0.90;;;0.90;;
6665;SDS011;3369;49.906;8.598;2023-05-10T10:37:59;0.80;;;0.80;;
6665;SDS011;3369;49.906;8.598;2023-05-10T10:42:59;1.53;;;0.80;;
6665;SDS011;3369;49.906;8.598;2023-05-10T10:48:49;0.83;;;0.83;;
6665;SDS011;3369;49.906;8.598;2023-05-10T10:51:32;1.63;;;1.13;;
6665;SDS011;3369;49.906;8.598;2023-05-10T10:54:11;0.80;;;0.80;;
6665;SDS011;3369;49.906;8.598;2023-05-10T10:56:37;3.70;;;1.17;;
6665;SDS011;3369;49.906;8.598;2023-05-10T10:59:03;2.77;;;0.90;;
6665;SDS011;3369;49.906;8.598;2023-05-10T11:01:35;0.63;;;0.63;;
6665;SDS011;3369;49.906;8.598;2023-05-10T11:06:29;1.90;;;0.90;;
6665;SDS011;3369;49.906;8.598;2023-05-10T11:08:59;0.80;;;0.77;;
6665;SDS011;3369;49.906;8.598;2023-05-10T11:11:32;1.63;;;0.87;;
6665;SDS011;3369;49.906;8.598;2023-05-10T11:14:04;0.60;;;0.60;;
6665;SDS011;3369;49.906;8.598;2023-05-10T11:16:40;2.10;;;0.90;;
6665;SDS011;3369;49.906;8.598;2023-05-10T11:19:11;1.50;;;0.90;;
6665;SDS011;3369;49.906;8.598;2023-05-10T11:21:50;0.87;;;0.87;;
6665;SDS011;3369;49.906;8.598;2023-05-10T11:24:37;0.93;;;0.93;;
6665;SDS011;3369;49.906;8.598;2023-05-10T11:27:02;0.80;;;0.80;;
6665;SDS011;3369;49.906;8.598;2023-05-10T11:29:28;0.77;;;0.77;;
6665;SDS011;3369;49.906;8.598;2023-05-10T11:31:56;1.93;;;1.00;;
6665;SDS011;3369;49.906;8.598;2023-05-10T11:34:29;3.40;;;1.10;;
6665;SDS011;3369;49.906;8.598;2023-05-10T11:36:58;1.20;;;1.10;;
6665;SDS011;3369;49.906;8.598;2023-05-10T11:39:28;2.10;;;0.93;;
6665;SDS011;3369;49.906;8.598;2023-05-10T11:41:55;1.57;;;0.90;;
6665;SDS011;3369;49.906;8.598;2023-05-10T11:44:22;1.17;;;0.80;;
6665;SDS011;3369;49.906;8.598;2023-05-10T11:46:49;0.60;;;0.60;;
6665;SDS011;3369;49.906;8.598;2023-05-10T11:49:15;0.60;;;0.60;;
6665;SDS011;3369;49.906;8.598;2023-05-10T11:51:41;1.63;;;0.70;;
6665;SDS011;3369;49.906;8.598;2023-05-10T11:54:08;0.80;;;0.60;;
6665;SDS011;3369;49.906;8.598;2023-05-10T11:56:38;0.80;;;0.80;;
6665;SDS011;3369;49.906;8.598;2023-05-10T11:59:05;0.57;;;0.57;;
6665;SDS011;3369;49.906;8.598;2023-05-10T12:01:31;0.90;;;0.60;;
6665;SDS011;3369;49.906;8.598;2023-05-10T12:03:57;1.03;;;0.90;;
6665;SDS011;3369;49.906;8.598;2023-05-10T12:06:28;1.40;;;0.50;;
6665;SDS011;3369;49.906;8.598;2023-05-10T12:08:56;0.57;;;0.57;;
6665;SDS011;3369;49.906;8.598;2023-05-10T12:11:24;0.40;;;0.40;;
6665;SDS011;3369;49.906;8.598;2023-05-10T12:13:51;3.60;;;0.60;;
6665;SDS011;3369;49.906;8.598;2023-05-10T12:16:21;0.60;;;0.60;;
6665;SDS011;3369;49.906;8.598;2023-05-10T12:18:51;0.70;;;0.70;;
6665;SDS011;3369;49.906;8.598;2023-05-10T12:21:19;1.40;;;0.50;;
6665;SDS011;3369;49.906;8.598;2023-05-10T12:23:48;0.60;;;0.60;;
6665;SDS011;3369;49.906;8.598;2023-05-10T12:26:15;0.57;;;0.57;;
6665;SDS011;3369;49.906;8.598;2023-05-10T12:28:41;0.60;;;0.60;;
6665;SDS011;3369;49.906;8.598;2023-05-10T12:31:07;0.50;;;0.50;;
6665;SDS011;3369;49.906;8.598;2023-05-10T12:33:40;1.33;;;0.70;;
6665;SDS011;3369;49.906;8.598;2023-05-10T12:36:11;0.50;;;0.50;;
6665;SDS011;3369;49.906;8.598;2023-05-10T12:38:39;0.57;;;0.57;;
6665;SDS011;3369;49.906;8.598;2023-05-10T12:41:14;0.60;;;0.40;;
6665;SDS011;3369;49.906;8.598;2023-05-10T12:43:40;0.93;;;0.80;;
6665;SDS011;3369;49.906;8.598;2023-05-10T12:46:13;0.67;;;0.60;;
6665;SDS011;3369;49.906;8.598;2023-05-10T12:48:41;1.60;;;0.63;;
6665;SDS011;3369;49.906;8.598;2023-05-10T12:51:09;0.47;;;0.47;;
6665;SDS011;3369;49.906;8.598;2023-05-10T12:53:37;0.57;;;0.57;;
6665;SDS011;3369;49.906;8.598;2023-05-10T12:56:03;1.57;;;0.60;;
6665;SDS011;3369;49.906;8.598;2023-05-10T12:58:29;0.63;;;0.60;;
6665;SDS011;3369;49.906;8.598;2023-05-10T13:00:54;0.73;;;0.73;;
6665;SDS011;3369;49.906;8.598;2023-05-10T13:03:21;0.63;;;0.60;;
6665;SDS011;3369;49.906;8.598;2023-05-10T13:05:47;0.70;;;0.70;;
6665;SDS011;3369;49.906;8.598;2023-05-10T13:08:13;1.60;;;0.70;;
6665;SDS011;3369;49.906;8.598;2023-05-10T13:30:12;1.20;;;1.07;;
6665;SDS011;3369;49.906;8.598;2023-05-10T13:32:38;1.80;;;0.90;;
6665;SDS011;3369;49.906;8.598;2023-05-10T13:35:04;0.80;;;0.80;;
6665;SDS011;3369;49.906;8.598;2023-05-10T13:37:30;1.23;;;0.70;;
6665;SDS011;3369;49.906;8.598;2023-05-10T13:39:57;6.57;;;0.90;;
6665;SDS011;3369;49.906;8.598;2023-05-10T13:42:22;5.20;;;1.00;;
6665;SDS011;3369;49.906;8.598;2023-05-10T13:44:49;1.33;;;0.80;;
6665;SDS011;3369;49.906;8.598;2023-05-10T13:47:15;1.13;;;0.80;;
6665;SDS011;3369;49.906;8.598;2023-05-10T13:49:41;1.10;;;0.70;;
6665;SDS011;3369;49.906;8.598;2023-05-10T13:52:07;2.03;;;0.97;;
6665;SDS011;3369;49.906;8.598;2023-05-10T13:54:36;0.93;;;0.73;;
6665;SDS011;3369;49.906;8.598;2023-05-10T13:57:03;1.63;;;0.80;;
6665;SDS011;3369;49.906;8.598;2023-05-10T13:59:29;1.70;;;0.80;;
6665;SDS011;3369;49.906;8.598;2023-05-10T14:01:58;1.23;;;0.77;;
6665;SDS011;3369;49.906;8.598;2023-05-10T14:04:25;1.23;;;0.90;;
6665;SDS011;3369;49.906;8.598;2023-05-10T14:06:50;1.67;;;1.33;;
6665;SDS011;3369;49.906;8.598;2023-05-10T14:09:17;1.03;;;1.00;;
6665;SDS011;3369;49.906;8.598;2023-05-10T14:11:43;1.50;;;0.97;;
6665;SDS011;3369;49.906;8.598;2023-05-10T14:14:10;1.00;;;0.70;;
6665;SDS011;3369;49.906;8.598;2023-05-10T14:16:36;1.23;;;0.90;;
6665;SDS011;3369;49.906;8.598;2023-05-10T14:19:02;7.00;;;1.50;;
6665;SDS011;3369;49.906;8.598;2023-05-10T14:21:27;2.23;;;1.13;;
6665;SDS011;3369;49.906;8.598;2023-05-10T14:23:55;1.80;;;1.00;;
6665;SDS011;3369;49.906;8.598;2023-05-10T14:26:21;4.33;;;1.33;;
6665;SDS011;3369;49.906;8.598;2023-05-10T14:28:46;1.77;;;1.10;;
6665;SDS011;3369;49.906;8.598;2023-05-10T14:31:12;1.37;;;0.87;;
6665;SDS011;3369;49.906;8.598;2023-05-10T14:33:39;2.90;;;1.00;;
6665;SDS011;3369;49.906;8.598;2023-05-10T14:36:05;2.33;;;1.00;;
6665;SDS011;3369;49.906;8.598;2023-05-10T14:38:31;2.00;;;0.90;;
6665;SDS011;3369;49.906;8.598;2023-05-10T14:40:57;2.30;;;1.00;;
6665;SDS011;3369;49.906;8.598;2023-05-10T14:43:23;4.03;;;1.00;;
6665;SDS011;3369;49.906;8.598;2023-05-10T14:45:49;3.23;;;1.27;;
6665;SDS011;3369;49.906;8.598;2023-05-10T14:48:15;2.10;;;0.97;;
6665;SDS011;3369;49.906;8.598;2023-05-10T14:50:42;3.93;;;1.90;;
6665;SDS011;3369;49.906;8.598;2023-05-10T14:53:08;1.73;;;1.30;;
6665;SDS011;3369;49.906;8.598;2023-05-10T14:55:34;1.57;;;1.03;;
6665;SDS011;3369;49.906;8.598;2023-05-10T14:58:00;2.17;;;0.90;;
6665;SDS011;3369;49.906;8.598;2023-05-10T15:00:27;0.97;;;0.87;;
6665;SDS011;3369;49.906;8.598;2023-05-10T15:02:54;1.60;;;0.70;;
6665;SDS011;3369;49.906;8.598;2023-05-10T15:05:19;1.20;;;0.90;;
6665;SDS011;3369;49.906;8.598;2023-05-10T15:07:45;1.87;;;0.83;;
6665;SDS011;3369;49.906;8.598;2023-05-10T15:10:11;0.80;;;0.80;;
6665;SDS011;3369;49.906;8.598;2023-05-10T15:12:37;0.83;;;0.83;;
6665;SDS011;3369;49.906;8.598;2023-05-10T15:15:03;3.90;;;1.00;;
6665;SDS011;3369;49.906;8.598;2023-05-10T15:17:29;1.03;;;0.97;;
6665;SDS011;3369;49.906;8.598;2023-05-10T15:19:55;1.30;;;0.90;;
6665;SDS011;3369;49.906;8.598;2023-05-10T15:22:20;1.27;;;1.00;;
6665;SDS011;3369;49.906;8.598;2023-05-10T15:24:47;0.97;;;0.90;;
6665;SDS011;3369;49.906;8.598;2023-05-10T15:27:12;1.00;;;0.90;;
6665;SDS011;3369;49.906;8.598;2023-05-10T15:29:38;1.80;;;1.13;;
6665;SDS011;3369;49.906;8.598;2023-05-10T15:32:04;2.57;;;1.10;;
6665;SDS011;3369;49.906;8.598;2023-05-10T15:34:29;2.23;;;0.80;;
6665;SDS011;3369;49.906;8.598;2023-05-10T15:36:55;1.47;;;0.70;;
6665;SDS011;3369;49.906;8.598;2023-05-10T15:39:21;1.87;;;0.80;;
6665;SDS011;3369;49.906;8.598;2023-05-10T15:41:47;2.00;;;0.80;;
6665;SDS011;3369;49.906;8.598;2023-05-10T15:44:12;2.30;;;0.73;;
6665;SDS011;3369;49.906;8.598;2023-05-10T15:46:38;2.20;;;0.60;;
6665;SDS011;3369;49.906;8.598;2023-05-10T15:49:03;2.33;;;1.07;;
6665;SDS011;3369;49.906;8.598;2023-05-10T15:51:30;0.60;;;0.60;;
6665;SDS011;3369;49.906;8.598;2023-05-10T15:53:57;1.20;;;0.83;;
6665;SDS011;3369;49.906;8.598;2023-05-10T15:56:23;0.70;;;0.60;;
6665;SDS011;3369;49.906;8.598;2023-05-10T15:58:49;0.87;;;0.80;;
6665;SDS011;3369;49.906;8.598;2023-05-10T16:01:15;1.10;;;0.77;;
6665;SDS011;3369;49.906;8.598;2023-05-10T16:03:40;1.20;;;0.80;;
6665;SDS011;3369;49.906;8.598;2023-05-10T16:06:07;0.60;;;0.60;;
6665;SDS011;3369;49.906;8.598;2023-05-10T16:08:33;1.17;;;0.70;;
6665;SDS011;3369;49.906;8.598;2023-05-10T16:10:59;1.57;;;1.00;;
6665;SDS011;3369;49.906;8.598;2023-05-10T16:13:25;2.00;;;0.97;;
6665;SDS011;3369;49.906;8.598;2023-05-10T16:15:50;1.20;;;1.07;;
6665;SDS011;3369;49.906;8.598;2023-05-10T16:18:17;1.23;;;0.77;;
6665;SDS011;3369;49.906;8.598;2023-05-10T16:20:43;0.53;;;0.53;;
6665;SDS011;3369;49.906;8.598;2023-05-10T16:23:08;2.63;;;0.80;;
6665;SDS011;3369;49.906;8.598;2023-05-10T16:25:35;1.70;;;0.80;;
6665;SDS011;3369;49.906;8.598;2023-05-10T16:28:00;2.57;;;1.00;;
6665;SDS011;3369;49.906;8.598;2023-05-10T16:30:26;3.17;;;0.87;;
6665;SDS011;3369;49.906;8.598;2023-05-10T16:32:54;0.50;;;0.50;;
6665;SDS011;3369;49.906;8.598;2023-05-10T16:35:21;2.53;;;0.70;;
6665;SDS011;3369;49.906;8.598;2023-05-10T16:37:47;1.33;;;0.70;;
6665;SDS011;3369;49.906;8.598;2023-05-10T16:40:14;1.57;;;0.60;;
6665;SDS011;3369;49.906;8.598;2023-05-10T16:42:39;0.93;;;0.67;;